Time;durP1;ratioP1;P1;durP2;ratioP2;P2;SDS_P1;SDS_P2;PMS_P1;PMS_P2;Temp;Humidity;BMP_temperature;BMP_pressure;BME280_temperature;BME280_humidity;BME280_pressure;Samples;Min_cycle;Max_cycle;Signal;HPM_P1;HPM_P2
2023/07/30 00:02:20;;;;;;;1.67;1.57;;;19.40;99.90;;;;;;5045988;28;20279;-76
2023/07/30 00:04:46;;;;;;;1.57;1.57;;;19.50;99.90;;;;;;5034719;28;20223;-78
2023/07/30 00:07:12;;;;;;;1.70;1.60;;;19.40;99.90;;;;;;5034149;28;20574;-76
2023/07/30 00:09:38;;;;;;;1.70;1.60;;;19.40;99.90;;;;;;5033897;28;20177;-75
2023/07/30 00:12:06;;;;;;;1.70;1.60;;;19.40;99.90;;;;;;5044703;28;20199;-77
2023/07/30 00:14:31;;;;;;;1.73;1.50;;;19.30;99.90;;;;;;5050504;28;20200;-77
2023/07/30 00:16:57;;;;;;;1.90;1.80;;;19.30;99.90;;;;;;5045396;28;20635;-76
2023/07/30 00:19:23;;;;;;;1.80;1.70;;;19.40;99.90;;;;;;5035542;28;20204;-76
2023/07/30 00:21:48;;;;;;;1.70;1.60;;;19.30;99.90;;;;;;5034787;28;20204;-76
2023/07/30 00:24:14;;;;;;;1.83;1.60;;;19.30;99.90;;;;;;5033604;28;20650;-76
2023/07/30 00:26:40;;;;;;;1.50;1.40;;;19.30;99.90;;;;;;5033625;28;20211;-79
2023/07/30 00:29:06;;;;;;;1.63;1.53;;;19.30;99.90;;;;;;5016264;28;20176;-76
2023/07/30 00:31:32;;;;;;;1.90;1.80;;;19.30;99.90;;;;;;5033339;28;20176;-76
2023/07/30 00:33:58;;;;;;;2.73;1.50;;;19.20;99.90;;;;;;5033203;28;20181;-79
2023/07/30 00:36:23;;;;;;;1.50;1.50;;;19.20;99.90;;;;;;5046452;28;20183;-77
2023/07/30 00:38:49;;;;;;;1.90;1.80;;;19.20;99.90;;;;;;5052342;28;20181;-77
2023/07/30 00:41:15;;;;;;;1.60;1.60;;;19.20;99.90;;;;;;5024268;28;20187;-77
2023/07/30 00:43:41;;;;;;;1.43;1.43;;;19.20;99.90;;;;;;5034700;28;20228;-79
2023/07/30 00:46:07;;;;;;;1.53;1.50;;;19.10;99.90;;;;;;5033741;28;20176;-79
2023/07/30 00:48:33;;;;;;;1.53;1.53;;;19.20;99.90;;;;;;5016355;28;20176;-76
2023/07/30 00:50:59;;;;;;;1.30;1.30;;;19.20;99.90;;;;;;5033618;28;20195;-77
2023/07/30 00:53:27;;;;;;;1.50;1.50;;;19.30;99.90;;;;;;5015353;28;20184;-76
2023/07/30 00:55:53;;;;;;;1.43;1.40;;;19.30;99.90;;;;;;5033451;28;20259;-78
2023/07/30 00:58:22;;;;;;;5.60;2.53;;;19.20;99.90;;;;;;5033927;28;20180;-75
2023/07/30 01:00:48;;;;;;;1.80;1.70;;;19.20;99.90;;;;;;5033340;28;20173;-76
2023/07/30 01:03:14;;;;;;;2.43;1.80;;;19.20;99.90;;;;;;5032933;28;20532;-79
2023/07/30 01:05:40;;;;;;;1.87;1.77;;;19.30;99.90;;;;;;5033055;28;20223;-76
2023/07/30 01:08:06;;;;;;;1.53;1.50;;;19.30;99.90;;;;;;5032838;28;20211;-78
2023/07/30 01:10:33;;;;;;;1.70;1.60;;;19.30;99.90;;;;;;5033264;28;20169;-76
2023/07/30 01:13:03;;;;;;;1.93;1.83;;;19.30;99.90;;;;;;5032809;28;20807;-76
2023/07/30 01:15:29;;;;;;;1.87;1.77;;;19.30;99.90;;;;;;5033363;28;20165;-76
2023/07/30 01:17:55;;;;;;;1.70;1.60;;;19.30;99.90;;;;;;5048272;28;20207;-79
2023/07/30 01:20:21;;;;;;;1.50;1.40;;;19.30;99.90;;;;;;5038104;28;20176;-76
2023/07/30 01:22:48;;;;;;;1.80;1.70;;;19.30;99.90;;;;;;5033796;28;20176;-78
2023/07/30 01:25:15;;;;;;;1.83;1.70;;;19.30;99.90;;;;;;5017197;28;20185;-76
2023/07/30 01:27:47;;;;;;;1.93;1.60;;;19.30;99.90;;;;;;5038143;28;20224;-76
2023/07/30 01:30:22;;;;;;;1.90;1.80;;;19.20;99.90;;;;;;5047522;28;20164;-77
2023/07/30 01:32:52;;;;;;;3.10;1.80;;;19.10;99.90;;;;;;5033271;28;20202;-76
2023/07/30 01:35:24;;;;;;;2.07;1.80;;;19.20;99.90;;;;;;5039933;28;20161;-77
2023/07/30 01:37:50;;;;;;;1.93;1.83;;;19.20;99.90;;;;;;5037516;28;20226;-76
2023/07/30 01:40:16;;;;;;;3.00;1.73;;;19.30;99.90;;;;;;5048389;28;20172;-77
2023/07/30 01:42:42;;;;;;;2.10;2.00;;;19.20;99.90;;;;;;5048709;28;20191;-79
2023/07/30 01:45:08;;;;;;;1.67;1.67;;;19.10;99.90;;;;;;5037010;28;20228;-78
2023/07/30 01:47:33;;;;;;;1.70;1.70;;;19.10;99.90;;;;;;5036642;28;20312;-75
2023/07/30 01:49:59;;;;;;;1.93;1.83;;;19.20;99.90;;;;;;5036208;28;20699;-79
2023/07/30 01:52:26;;;;;;;3.73;2.00;;;19.10;99.90;;;;;;5018260;28;20180;-78
2023/07/30 01:54:52;;;;;;;2.00;1.90;;;19.10;99.90;;;;;;5035877;28;20251;-76
2023/07/30 01:57:17;;;;;;;2.13;2.03;;;19.10;99.90;;;;;;5037776;28;20274;-76
2023/07/30 01:59:43;;;;;;;2.57;1.80;;;19.10;99.90;;;;;;5022276;28;20180;-77
2023/07/30 02:02:09;;;;;;;1.83;1.73;;;19.00;99.90;;;;;;5021605;28;20188;-79
2023/07/30 02:04:35;;;;;;;2.03;1.93;;;19.10;99.90;;;;;;5035529;28;20184;-76
2023/07/30 02:07:00;;;;;;;1.90;1.80;;;19.10;99.90;;;;;;5035858;28;20203;-77
2023/07/30 02:09:26;;;;;;;1.80;1.70;;;19.00;99.90;;;;;;5035997;28;20592;-75
2023/07/30 02:11:52;;;;;;;1.87;1.77;;;19.00;99.90;;;;;;5035877;28;20792;-76
2023/07/30 02:14:18;;;;;;;2.00;1.90;;;19.00;99.90;;;;;;5017821;28;20176;-77
2023/07/30 02:16:44;;;;;;;1.70;1.60;;;19.00;99.90;;;;;;5036244;28;20176;-75
2023/07/30 02:19:10;;;;;;;1.83;1.73;;;19.00;99.90;;;;;;5036169;28;20196;-75
2023/07/30 02:21:38;;;;;;;1.90;1.80;;;19.00;99.90;;;;;;5035913;28;20679;-77
2023/07/30 02:24:09;;;;;;;1.80;1.70;;;18.90;99.90;;;;;;5017731;28;20204;-76
2023/07/30 02:26:35;;;;;;;1.70;1.70;;;18.90;99.90;;;;;;5035778;28;20208;-77
2023/07/30 02:29:01;;;;;;;1.80;1.70;;;18.90;99.90;;;;;;5049304;28;20204;-76
2023/07/30 02:31:27;;;;;;;2.03;1.80;;;18.80;99.90;;;;;;5054031;28;20194;-79
2023/07/30 02:33:56;;;;;;;2.00;1.90;;;18.90;99.90;;;;;;5034964;28;20251;-77
2023/07/30 02:36:22;;;;;;;1.87;1.77;;;18.80;99.90;;;;;;5017302;28;20180;-76
2023/07/30 02:38:47;;;;;;;2.17;2.00;;;18.80;99.90;;;;;;5034712;28;20636;-77
2023/07/30 02:41:13;;;;;;;1.70;1.60;;;18.80;99.90;;;;;;5035449;28;20302;-77
2023/07/30 02:43:39;;;;;;;1.70;1.70;;;18.80;99.90;;;;;;5034544;28;20239;-77
2023/07/30 02:46:06;;;;;;;1.67;1.60;;;18.80;99.90;;;;;;5017305;28;20180;-77
2023/07/30 02:48:32;;;;;;;2.60;1.90;;;18.80;99.90;;;;;;5017688;28;20517;-78
2023/07/30 02:50:58;;;;;;;1.90;1.80;;;18.80;99.90;;;;;;5035008;28;20180;-77
2023/07/30 02:53:24;;;;;;;2.00;1.77;;;18.90;99.90;;;;;;5037530;28;20183;-76
2023/07/30 02:55:50;;;;;;;2.10;2.00;;;18.90;99.90;;;;;;5056739;28;20199;-77
2023/07/30 02:58:15;;;;;;;2.20;2.10;;;18.90;99.90;;;;;;5024220;28;20226;-75
2023/07/30 03:00:41;;;;;;;1.97;1.87;;;19.00;99.90;;;;;;5017331;28;20635;-79
2023/07/30 03:03:07;;;;;;;2.03;1.93;;;19.00;99.90;;;;;;5034735;28;20189;-77
2023/07/30 03:05:33;;;;;;;2.03;1.77;;;19.00;99.90;;;;;;5045450;28;20184;-78
2023/07/30 03:07:58;;;;;;;2.07;1.97;;;19.00;99.90;;;;;;5055625;28;20208;-77
2023/07/30 03:10:24;;;;;;;1.80;1.70;;;19.00;99.90;;;;;;5019169;28;20172;-78
2023/07/30 03:12:50;;;;;;;2.13;2.03;;;19.00;99.90;;;;;;5036056;28;20176;-76
2023/07/30 03:15:15;;;;;;;1.73;1.70;;;19.10;99.90;;;;;;5035890;28;20181;-75
2023/07/30 03:17:41;;;;;;;1.97;1.90;;;19.10;99.90;;;;;;5037444;28;20176;-75
2023/07/30 03:20:08;;;;;;;2.00;1.90;;;19.10;99.90;;;;;;5024978;28;20200;-78
2023/07/30 03:22:34;;;;;;;1.80;1.80;;;19.00;99.90;;;;;;5051715;28;20242;-78
2023/07/30 03:25:00;;;;;;;2.10;2.00;;;19.00;99.90;;;;;;5037762;28;20185;-78
2023/07/30 03:27:26;;;;;;;2.00;1.90;;;19.00;99.90;;;;;;5034898;28;20310;-77
2023/07/30 03:29:51;;;;;;;2.00;1.90;;;19.00;99.90;;;;;;5034674;28;20272;-75
2023/07/30 03:32:17;;;;;;;2.10;2.00;;;19.00;99.90;;;;;;5034363;28;20180;-79
2023/07/30 03:34:43;;;;;;;1.80;1.70;;;19.00;99.90;;;;;;5016155;28;20181;-78
2023/07/30 03:37:08;;;;;;;2.00;1.90;;;19.10;99.90;;;;;;5034241;28;20208;-80
2023/07/30 03:39:35;;;;;;;2.20;2.10;;;19.00;99.90;;;;;;5034339;28;20176;-76
2023/07/30 03:42:00;;;;;;;2.00;1.90;;;18.90;99.90;;;;;;5034307;28;20173;-76
2023/07/30 03:44:26;;;;;;;2.10;1.90;;;18.90;99.90;;;;;;5033604;28;20232;-77
2023/07/30 03:46:52;;;;;;;1.80;1.80;;;18.90;99.90;;;;;;5034045;28;20212;-77
2023/07/30 03:49:18;;;;;;;2.00;1.90;;;18.90;99.90;;;;;;5014751;28;20279;-76
2023/07/30 03:51:44;;;;;;;2.03;1.93;;;18.10;99.90;;;;;;5034055;28;20242;-76
2023/07/30 03:54:10;;;;;;;2.07;1.80;;;19.00;99.90;;;;;;5033811;28;20184;-78
2023/07/30 03:56:36;;;;;;;1.77;1.77;;;19.00;99.90;;;;;;5016417;28;20207;-78
2023/07/30 03:59:02;;;;;;;1.90;1.80;;;19.00;99.90;;;;;;5038177;28;20187;-75
2023/07/30 04:01:29;;;;;;;2.00;1.90;;;18.90;99.90;;;;;;5038026;28;20222;-76
2023/07/30 04:03:54;;;;;;;2.00;1.90;;;18.80;99.90;;;;;;5016119;28;20183;-78
2023/07/30 04:06:20;;;;;;;1.93;1.80;;;18.80;99.90;;;;;;5034218;28;20212;-76
2023/07/30 04:08:46;;;;;;;2.10;2.00;;;18.80;99.90;;;;;;5033838;28;20247;-76
2023/07/30 04:11:12;;;;;;;1.70;1.70;;;18.80;99.90;;;;;;5033648;28;20184;-75
2023/07/30 04:13:37;;;;;;;1.90;1.80;;;18.80;99.90;;;;;;5015652;28;20627;-77
2023/07/30 04:16:03;;;;;;;2.23;2.13;;;18.70;99.90;;;;;;5033809;28;20525;-77
2023/07/30 04:18:29;;;;;;;2.00;1.90;;;18.60;99.90;;;;;;5033721;28;20176;-77
2023/07/30 04:20:58;;;;;;;2.13;1.93;;;18.60;99.90;;;;;;5033673;28;20178;-77
2023/07/30 04:23:24;;;;;;;2.30;2.20;;;18.60;99.90;;;;;;5033267;28;20213;-76
2023/07/30 04:25:50;;;;;;;2.33;2.13;;;18.60;99.90;;;;;;5033232;28;20183;-77
2023/07/30 04:28:16;;;;;;;3.23;2.00;;;18.60;99.90;;;;;;5033486;28;20208;-79
2023/07/30 04:30:42;;;;;;;2.20;2.00;;;18.60;99.90;;;;;;5033535;28;20207;-76
2023/07/30 04:33:08;;;;;;;2.30;2.20;;;18.50;99.90;;;;;;5047730;28;20157;-77
2023/07/30 04:35:34;;;;;;;2.20;2.10;;;18.50;99.90;;;;;;5020219;28;20188;-75
2023/07/30 04:37:59;;;;;;;2.10;2.00;;;18.50;99.90;;;;;;5033977;28;20195;-78
2023/07/30 04:40:25;;;;;;;2.03;1.93;;;18.50;99.90;;;;;;5033918;28;20222;-79
2023/07/30 04:42:51;;;;;;;2.10;2.00;;;18.50;99.90;;;;;;5034092;28;20176;-77
2023/07/30 04:45:17;;;;;;;3.43;2.03;;;18.50;99.90;;;;;;5048549;28;20283;-76
2023/07/30 04:47:42;;;;;;;2.07;1.97;;;18.60;99.90;;;;;;5035803;28;20200;-75
2023/07/30 04:50:08;;;;;;;2.50;2.30;;;18.50;99.90;;;;;;5033201;28;20203;-75
2023/07/30 04:52:34;;;;;;;2.20;2.10;;;18.60;99.90;;;;;;5034159;28;20180;-76
2023/07/30 04:55:00;;;;;;;2.10;2.00;;;18.60;99.90;;;;;;5034514;28;20557;-77
2023/07/30 04:57:26;;;;;;;1.90;1.80;;;18.60;99.90;;;;;;5034479;28;20597;-76
2023/07/30 04:59:52;;;;;;;2.30;2.20;;;18.60;99.90;;;;;;5036524;28;20531;-77
2023/07/30 05:02:19;;;;;;;2.30;2.20;;;18.60;99.90;;;;;;5052559;28;20168;-75
2023/07/30 05:04:45;;;;;;;1.90;1.80;;;18.60;99.90;;;;;;5043025;28;20275;-76
2023/07/30 05:07:11;;;;;;;2.87;2.70;;;18.60;99.90;;;;;;5038094;28;20256;-76
2023/07/30 05:09:36;;;;;;;2.37;2.27;;;18.60;99.90;;;;;;5036993;28;20172;-76
2023/07/30 05:12:02;;;;;;;2.67;2.57;;;18.60;99.90;;;;;;5038771;28;20184;-81
2023/07/30 05:14:28;;;;;;;2.13;1.93;;;18.60;99.90;;;;;;5037109;28;20165;-76
2023/07/30 05:16:54;;;;;;;3.70;2.00;;;18.60;99.90;;;;;;5019490;28;20259;-74
2023/07/30 05:19:20;;;;;;;2.30;2.20;;;18.60;99.90;;;;;;5036332;28;20181;-76
2023/07/30 05:21:46;;;;;;;2.30;2.20;;;18.70;99.90;;;;;;5019321;28;20184;-76
2023/07/30 05:24:11;;;;;;;2.10;2.00;;;18.70;99.90;;;;;;5036599;28;20168;-77
2023/07/30 05:26:37;;;;;;;2.03;1.97;;;18.60;99.90;;;;;;5036910;28;20248;-76
2023/07/30 05:29:03;;;;;;;2.20;2.10;;;18.60;99.90;;;;;;5037054;28;20191;-78
2023/07/30 05:31:29;;;;;;;2.60;2.40;;;18.60;99.90;;;;;;5040893;28;20176;-77
2023/07/30 05:33:55;;;;;;;2.10;2.00;;;18.60;99.90;;;;;;5045332;28;20167;-77
2023/07/30 05:36:21;;;;;;;2.40;2.20;;;18.60;99.90;;;;;;5059489;28;20180;-75
2023/07/30 05:38:47;;;;;;;3.37;3.13;;;18.60;99.90;;;;;;5040986;28;20228;-78
2023/07/30 05:41:12;;;;;;;2.23;2.03;;;18.50;99.90;;;;;;5040391;28;20632;-77
2023/07/30 05:43:38;;;;;;;2.33;2.10;;;18.60;99.90;;;;;;5036177;28;20211;-74
2023/07/30 05:46:04;;;;;;;2.10;2.00;;;18.60;99.90;;;;;;5018326;28;20261;-76
2023/07/30 05:48:29;;;;;;;2.53;1.83;;;18.60;99.90;;;;;;5036435;28;20193;-79
2023/07/30 05:50:55;;;;;;;2.20;2.10;;;18.70;99.90;;;;;;5036165;28;20169;-77
2023/07/30 05:53:21;;;;;;;2.43;2.20;;;18.70;99.90;;;;;;5036617;28;20177;-77
2023/07/30 05:55:47;;;;;;;2.40;2.20;;;18.80;99.90;;;;;;5036958;28;20513;-76
2023/07/30 05:58:14;;;;;;;2.50;2.20;;;18.90;99.90;;;;;;5037708;28;20646;-75
2023/07/30 06:00:40;;;;;;;2.23;2.13;;;18.90;99.90;;;;;;5037988;28;20187;-75
2023/07/30 06:03:06;;;;;;;2.17;2.07;;;18.80;99.90;;;;;;5021764;28;20272;-76
2023/07/30 06:05:32;;;;;;;3.57;2.00;;;19.00;99.90;;;;;;5039627;28;20172;-75
2023/07/30 06:07:59;;;;;;;2.10;2.00;;;19.00;99.90;;;;;;5038897;28;20211;-76
2023/07/30 06:10:25;;;;;;;2.50;2.30;;;19.10;99.90;;;;;;5047907;28;20188;-76
2023/07/30 06:12:50;;;;;;;2.07;1.97;;;19.10;99.90;;;;;;5040451;28;20173;-77
2023/07/30 06:15:16;;;;;;;2.13;2.03;;;19.20;99.90;;;;;;5036161;28;20234;-76
2023/07/30 06:17:42;;;;;;;2.60;2.33;;;19.20;99.90;;;;;;5037139;28;20169;-76
2023/07/30 06:20:08;;;;;;;2.47;2.27;;;19.30;99.90;;;;;;5049809;28;20687;-75
2023/07/30 06:22:34;;;;;;;2.57;2.47;;;19.30;99.90;;;;;;5052375;28;20205;-77
2023/07/30 06:25:00;;;;;;;4.23;2.80;;;19.30;99.90;;;;;;5050527;28;20552;-75
2023/07/30 06:27:25;;;;;;;3.23;2.97;;;19.30;99.90;;;;;;5040857;28;20283;-77
2023/07/30 06:29:51;;;;;;;2.73;2.60;;;19.40;99.90;;;;;;5037533;28;20176;-77
2023/07/30 06:32:17;;;;;;;2.83;2.63;;;19.40;99.90;;;;;;5036957;28;20180;-75
2023/07/30 06:34:43;;;;;;;3.00;2.90;;;19.40;99.90;;;;;;5035194;28;20259;-81
2023/07/30 06:37:09;;;;;;;3.30;3.10;;;19.50;99.90;;;;;;5034948;28;20177;-77
2023/07/30 06:39:34;;;;;;;2.93;2.83;;;19.60;99.90;;;;;;5030154;28;20191;-78
2023/07/30 06:42:00;;;;;;;3.30;3.10;;;19.60;99.90;;;;;;5043484;28;20204;-75
2023/07/30 06:44:26;;;;;;;4.47;4.10;;;19.60;99.90;;;;;;5042588;28;20334;-76
2023/07/30 06:46:51;;;;;;;5.10;2.73;;;19.60;99.90;;;;;;5035363;28;20259;-76
2023/07/30 06:49:17;;;;;;;2.73;2.63;;;19.60;99.90;;;;;;5013876;28;20222;-75
2023/07/30 06:51:43;;;;;;;3.13;2.90;;;19.70;99.90;;;;;;5034915;28;20172;-76
2023/07/30 06:54:09;;;;;;;4.90;4.40;;;19.70;99.90;;;;;;5034704;28;20172;-77
2023/07/30 06:56:34;;;;;;;3.27;3.07;;;19.70;99.90;;;;;;5034611;28;20180;-77
2023/07/30 06:59:01;;;;;;;3.30;3.00;;;19.70;99.90;;;;;;5035216;28;20165;-78
2023/07/30 07:01:28;;;;;;;2.97;2.77;;;19.70;99.90;;;;;;5035078;28;20173;-75
2023/07/30 07:03:55;;;;;;;2.80;2.60;;;19.80;99.90;;;;;;5034781;28;20180;-78
2023/07/30 07:06:21;;;;;;;4.43;3.27;;;20.00;99.90;;;;;;5035428;28;20168;-75
2023/07/30 07:08:47;;;;;;;3.13;2.70;;;20.10;99.90;;;;;;5035228;28;20177;-77
2023/07/30 07:11:12;;;;;;;6.43;4.50;;;20.20;99.90;;;;;;5035546;28;20568;-77
2023/07/30 07:13:38;;;;;;;3.20;3.00;;;20.30;99.90;;;;;;5034390;28;20164;-76
2023/07/30 07:16:04;;;;;;;3.00;2.80;;;20.40;99.90;;;;;;5034925;28;20648;-77
2023/07/30 07:18:30;;;;;;;3.30;3.00;;;20.60;99.90;;;;;;5034621;28;20177;-78
2023/07/30 07:20:55;;;;;;;2.90;2.50;;;20.80;99.90;;;;;;5035059;28;20179;-79
2023/07/30 07:23:21;;;;;;;2.90;2.70;;;20.90;99.90;;;;;;5034012;28;20578;-75
2023/07/30 07:25:47;;;;;;;3.13;2.93;;;20.90;99.90;;;;;;5034530;28;20582;-76
2023/07/30 07:28:12;;;;;;;2.70;2.53;;;21.10;99.90;;;;;;5034282;28;20223;-76
2023/07/30 07:30:38;;;;;;;2.03;1.93;;;21.00;99.90;;;;;;5034751;28;20176;-77
2023/07/30 07:33:05;;;;;;;3.43;2.10;;;21.00;99.90;;;;;;5034583;28;20168;-75
2023/07/30 07:35:31;;;;;;;2.00;1.90;;;21.00;99.90;;;;;;5034405;28;20177;-74
2023/07/30 07:37:57;;;;;;;2.60;2.40;;;21.00;99.90;;;;;;5034520;28;20176;-78
2023/07/30 07:40:23;;;;;;;2.40;2.20;;;20.90;99.90;;;;;;5034254;28;20160;-77
2023/07/30 07:42:49;;;;;;;2.07;1.97;;;20.90;99.90;;;;;;5034531;28;20520;-77
2023/07/30 07:45:14;;;;;;;1.80;1.70;;;21.00;99.90;;;;;;5034345;28;20252;-76
2023/07/30 07:47:40;;;;;;;2.50;2.30;;;21.10;99.90;;;;;;5045597;28;20208;-77
2023/07/30 07:50:06;;;;;;;2.37;2.27;;;21.20;99.90;;;;;;5040836;28;20639;-76
2023/07/30 07:52:32;;;;;;;2.40;2.30;;;21.30;99.90;;;;;;5035862;28;20184;-78
2023/07/30 07:54:58;;;;;;;2.13;2.03;;;21.20;99.90;;;;;;5033822;28;20223;-76
2023/07/30 07:57:23;;;;;;;2.00;1.90;;;21.40;99.90;;;;;;5034898;28;20601;-77
2023/07/30 07:59:50;;;;;;;2.43;2.33;;;21.50;99.90;;;;;;5055002;28;20168;-76
2023/07/30 08:02:16;;;;;;;2.20;2.10;;;21.70;99.90;;;;;;5028598;28;20188;-76
2023/07/30 08:04:42;;;;;;;2.20;2.10;;;21.90;99.90;;;;;;5035681;28;20212;-78
2023/07/30 08:07:07;;;;;;;2.03;1.93;;;22.10;99.90;;;;;;5034946;28;20208;-78
2023/07/30 08:09:33;;;;;;;2.10;1.90;;;22.40;99.90;;;;;;5037350;28;20172;-77
2023/07/30 08:12:00;;;;;;;1.93;1.83;;;22.30;99.90;;;;;;5037589;28;20188;-75
2023/07/30 08:14:26;;;;;;;2.47;2.37;;;22.40;99.90;;;;;;5036145;28;20583;-79
2023/07/30 08:16:55;;;;;;;2.13;2.03;;;22.50;99.90;;;;;;5034626;28;20173;-76
2023/07/30 08:19:20;;;;;;;2.38;1.95;;;22.20;99.90;;;;;;5033922;28;20171;-77
2023/07/30 08:21:46;;;;;;;2.10;2.00;;;22.80;99.90;;;;;;5038079;28;20168;-77
2023/07/30 08:24:12;;;;;;;1.93;1.83;;;22.80;99.90;;;;;;5045861;28;20272;-77
2023/07/30 08:26:38;;;;;;;1.90;1.80;;;22.90;99.90;;;;;;5037037;28;20200;-76
2023/07/30 08:29:06;;;;;;;3.00;2.30;;;23.00;99.90;;;;;;5034773;28;20655;-76
2023/07/30 08:31:31;;;;;;;2.00;1.90;;;23.00;99.90;;;;;;5034910;28;20612;-76
2023/07/30 08:33:57;;;;;;;1.83;1.80;;;23.00;99.90;;;;;;5034305;28;20180;-78
2023/07/30 08:36:23;;;;;;;2.13;2.03;;;22.90;99.90;;;;;;5033182;28;20226;-76
2023/07/30 08:38:49;;;;;;;1.95;1.85;;;22.90;99.90;;;;;;5033006;28;20267;-77
2023/07/30 08:41:15;;;;;;;4.97;2.58;;;22.90;99.90;;;;;;5033810;28;20168;-77
2023/07/30 08:43:40;;;;;;;3.37;2.10;;;22.90;99.90;;;;;;5033240;28;20225;-76
2023/07/30 08:46:06;;;;;;;2.25;2.15;;;22.80;99.90;;;;;;5033354;28;20184;-75
2023/07/30 08:48:32;;;;;;;2.37;2.27;;;22.80;99.90;;;;;;5033202;28;20180;-77
2023/07/30 08:50:59;;;;;;;3.83;3.53;;;22.70;99.90;;;;;;5033908;28;20651;-77
2023/07/30 08:53:26;;;;;;;2.65;2.45;;;22.60;99.90;;;;;;5035230;28;20259;-76
2023/07/30 08:55:54;;;;;;;2.30;2.20;;;22.90;99.90;;;;;;5035962;28;20169;-76
2023/07/30 08:58:22;;;;;;;2.33;2.13;;;22.80;99.90;;;;;;5033318;28;20180;-77
2023/07/30 09:00:50;;;;;;;1.80;1.80;;;22.90;99.90;;;;;;5035685;28;20196;-77
2023/07/30 09:03:17;;;;;;;2.50;2.30;;;23.10;99.90;;;;;;5033066;28;20192;-76
2023/07/30 09:05:43;;;;;;;2.88;2.67;;;23.20;99.90;;;;;;5033046;28;20199;-78
2023/07/30 09:08:10;;;;;;;2.40;2.30;;;23.20;99.90;;;;;;5033274;28;20229;-79
2023/07/30 09:10:35;;;;;;;2.10;2.00;;;23.30;99.90;;;;;;5054818;28;20180;-78
2023/07/30 09:13:03;;;;;;;2.22;1.90;;;23.50;99.90;;;;;;5044477;28;20185;-76
2023/07/30 09:15:32;;;;;;;2.38;2.17;;;23.80;99.90;;;;;;5034833;28;20559;-78
2023/07/30 09:17:58;;;;;;;2.15;2.05;;;24.00;99.90;;;;;;5034330;28;20194;-77
2023/07/30 09:20:24;;;;;;;2.10;2.00;;;24.20;99.90;;;;;;5033968;28;20172;-75
2023/07/30 09:22:50;;;;;;;1.73;1.65;;;24.30;99.90;;;;;;5045994;28;20268;-77
2023/07/30 09:25:20;;;;;;;1.90;1.80;;;24.30;99.90;;;;;;5051880;28;20180;-75
2023/07/30 09:27:51;;;;;;;2.20;2.10;;;24.40;99.90;;;;;;5038004;28;20211;-77
2023/07/30 09:30:27;;;;;;;1.90;1.88;;;24.30;99.90;;;;;;5035471;28;20166;-77
2023/07/30 09:32:54;;;;;;;1.90;1.80;;;24.30;99.90;;;;;;5034880;28;20240;-76
2023/07/30 09:35:20;;;;;;;3.38;1.90;;;24.20;99.90;;;;;;5035445;28;20235;-77
2023/07/30 09:37:46;;;;;;;1.50;1.50;;;24.20;99.90;;;;;;5042632;28;20188;-77
2023/07/30 09:40:18;;;;;;;1.90;1.80;;;24.10;99.90;;;;;;5045991;28;20189;-77
2023/07/30 09:42:46;;;;;;;1.90;1.80;;;24.00;99.90;;;;;;5039961;28;20230;-76
2023/07/30 09:45:23;;;;;;;1.20;1.20;;;23.90;99.90;;;;;;5033032;28;20556;-78
2023/07/30 09:47:53;;;;;;;1.20;1.20;;;23.70;99.90;;;;;;5036769;28;20222;-78
2023/07/30 09:50:19;;;;;;;1.67;1.50;;;23.60;99.90;;;;;;5036698;28;20666;-77
2023/07/30 09:52:45;;;;;;;1.50;1.50;;;23.50;99.90;;;;;;5036280;28;20256;-77
2023/07/30 09:55:12;;;;;;;1.45;1.45;;;23.50;99.90;;;;;;5036500;28;20172;-77
2023/07/30 09:57:38;;;;;;;1.55;1.55;;;23.60;99.90;;;;;;5036294;28;20177;-77
2023/07/30 10:00:06;;;;;;;1.30;1.30;;;23.80;99.90;;;;;;5036207;28;20160;-76
2023/07/30 10:02:34;;;;;;;1.50;1.50;;;23.80;99.90;;;;;;5042424;28;20207;-77
2023/07/30 10:05:03;;;;;;;1.63;1.63;;;23.90;99.90;;;;;;5046856;28;20239;-77
2023/07/30 10:07:30;;;;;;;1.80;1.70;;;24.00;99.90;;;;;;5037792;28;20219;-77
2023/07/30 10:10:00;;;;;;;1.40;1.40;;;24.20;99.90;;;;;;5036105;28;20165;-76
2023/07/30 10:12:31;;;;;;;1.23;1.23;;;24.40;99.90;;;;;;5037382;28;20161;-78
2023/07/30 10:14:57;;;;;;;1.25;1.25;;;24.50;99.90;;;;;;5036889;28;20175;-76
2023/07/30 10:17:23;;;;;;;1.25;1.17;;;24.70;99.90;;;;;;5037612;28;20177;-76
2023/07/30 10:19:50;;;;;;;1.35;1.35;;;24.90;99.90;;;;;;5037524;28;20185;-78
2023/07/30 10:22:18;;;;;;;1.20;1.20;;;25.00;99.90;;;;;;5020733;28;20175;-76
2023/07/30 10:25:06;;;;;;;1.02;1.02;;;25.10;99.90;;;;;;5040226;28;20185;-78
2023/07/30 10:27:49;;;;;;;1.10;1.10;;;25.20;99.90;;;;;;5039492;28;20197;-75
2023/07/30 10:30:16;;;;;;;1.10;1.10;;;25.40;99.90;;;;;;5039268;28;20247;-76
2023/07/30 10:32:55;;;;;;;0.90;0.90;;;25.60;99.90;;;;;;5024275;28;20180;-77
2023/07/30 10:35:39;;;;;;;1.33;1.20;;;25.70;99.90;;;;;;5036102;28;20682;-79
2023/07/30 10:38:45;;;;;;;1.40;1.40;;;25.90;99.90;;;;;;5035595;28;20176;-77
2023/07/30 10:41:13;;;;;;;1.17;1.10;;;26.30;99.90;;;;;;4974411;28;20229;-77
2023/07/30 10:43:41;;;;;;;1.10;1.10;;;26.40;99.90;;;;;;4973940;28;20249;-77
2023/07/30 10:46:11;;;;;;;1.10;1.10;;;26.50;99.90;;;;;;4958666;28;20206;-77
2023/07/30 10:48:45;;;;;;;1.33;1.33;;;26.50;99.90;;;;;;4974584;28;20214;-79
2023/07/30 10:51:16;;;;;;;1.02;1.02;;;26.40;99.90;;;;;;4975684;28;20171;-75
2023/07/30 10:53:50;;;;;;;1.13;1.13;;;26.20;99.90;;;;;;4975609;28;20187;-79
2023/07/30 10:56:18;;;;;;;1.23;1.13;;;25.80;99.90;;;;;;4975774;28;20214;-77
2023/07/30 10:58:50;;;;;;;1.20;1.20;;;25.60;99.90;;;;;;4975735;28;20215;-77
2023/07/30 11:01:17;;;;;;;1.02;1.02;;;25.30;99.90;;;;;;4986605;28;20190;-76
2023/07/30 11:03:43;;;;;;;1.08;1.08;;;25.20;99.90;;;;;;4979780;28;20379;-76
2023/07/30 11:06:09;;;;;;;1.33;1.30;;;25.10;99.90;;;;;;4961893;28;20648;-77
2023/07/30 11:08:39;;;;;;;1.13;1.13;;;25.00;99.90;;;;;;4975347;28;20245;-75
2023/07/30 11:11:07;;;;;;;0.95;0.95;;;24.90;99.90;;;;;;4969570;28;20783;-76
2023/07/30 11:13:43;;;;;;;1.48;1.48;;;24.90;99.90;;;;;;5048942;28;20244;-76
2023/07/30 11:16:10;;;;;;;1.10;1.10;;;24.70;99.90;;;;;;5040947;28;20200;-77
2023/07/30 11:18:41;;;;;;;1.67;1.10;;;24.80;99.90;;;;;;5035198;28;20172;-78
2023/07/30 11:21:16;;;;;;;1.10;1.10;;;24.80;99.90;;;;;;5017083;28;20176;-79
2023/07/30 11:23:43;;;;;;;1.23;1.23;;;24.90;99.90;;;;;;5034434;28;20157;-79
2023/07/30 11:26:17;;;;;;;1.20;1.20;;;25.00;99.90;;;;;;5017274;28;20172;-77
2023/07/30 11:28:43;;;;;;;1.75;1.20;;;25.10;99.90;;;;;;5034438;28;20204;-76
2023/07/30 11:31:19;;;;;;;1.23;1.23;;;25.30;99.90;;;;;;5034853;28;20176;-78
2023/07/30 11:33:47;;;;;;;1.30;1.30;;;25.10;99.90;;;;;;5016968;28;20639;-77
2023/07/30 11:36:19;;;;;;;1.40;1.40;;;25.10;99.90;;;;;;5016967;28;20176;-75
2023/07/30 11:38:46;;;;;;;1.30;1.30;;;25.10;99.90;;;;;;5034510;28;20520;-76
2023/07/30 11:41:13;;;;;;;1.40;1.40;;;25.00;99.90;;;;;;5034599;28;20227;-74
2023/07/30 11:43:41;;;;;;;1.10;1.10;;;25.00;99.90;;;;;;5041675;28;20263;-79
2023/07/30 11:46:20;;;;;;;1.08;1.08;;;25.10;99.90;;;;;;5043563;28;20326;-76
2023/07/30 11:48:47;;;;;;;1.02;1.02;;;25.00;99.90;;;;;;5019119;28;20196;-75
2023/07/30 11:51:33;;;;;;;1.42;1.30;;;25.10;99.90;;;;;;5034788;28;20160;-77
2023/07/30 11:54:01;;;;;;;0.88;0.88;;;25.20;99.90;;;;;;5034616;28;20176;-76
2023/07/30 11:56:33;;;;;;;1.40;1.40;;;25.30;99.90;;;;;;5034887;28;20172;-78
2023/07/30 11:59:02;;;;;;;1.45;1.30;;;25.50;99.90;;;;;;5035449;28;20192;-76
2023/07/30 12:01:36;;;;;;;1.40;1.40;;;25.60;99.90;;;;;;5036615;28;20177;-78
2023/07/30 12:04:04;;;;;;;1.10;1.10;;;25.60;99.90;;;;;;5016037;28;20195;-76
2023/07/30 12:06:45;;;;;;;1.20;1.20;;;25.60;99.90;;;;;;5035199;28;20248;-77
2023/07/30 12:09:15;;;;;;;1.23;1.23;;;25.70;99.90;;;;;;5036072;28;20282;-78
2023/07/30 12:12:01;;;;;;;1.20;1.13;;;25.80;99.90;;;;;;5033968;28;20172;-78
2023/07/30 12:14:48;;;;;;;1.27;1.27;;;25.80;99.90;;;;;;5038585;28;20167;-79
2023/07/30 12:17:14;;;;;;;1.27;1.27;;;25.80;99.90;;;;;;5035047;28;20153;-79
2023/07/30 12:19:41;;;;;;;1.20;1.20;;;25.80;99.90;;;;;;5033793;28;20184;-79
2023/07/30 12:22:07;;;;;;;1.40;1.40;;;25.80;99.90;;;;;;5016017;28;20177;-76
2023/07/30 12:24:33;;;;;;;1.40;1.40;;;25.90;99.90;;;;;;5034131;28;20173;-79
2023/07/30 12:26:59;;;;;;;1.23;1.23;;;26.00;99.90;;;;;;5035548;28;20234;-77
2023/07/30 12:29:25;;;;;;;1.30;1.30;;;25.90;99.90;;;;;;5046566;28;20255;-78
2023/07/30 12:31:55;;;;;;;1.67;1.60;;;25.90;99.90;;;;;;5054298;28;20181;-78
2023/07/30 12:34:22;;;;;;;1.50;1.48;;;25.80;99.90;;;;;;5055518;28;20239;-75
2023/07/30 12:36:48;;;;;;;1.75;1.65;;;25.90;99.90;;;;;;5056761;28;20255;-77
2023/07/30 12:39:14;;;;;;;1.70;1.60;;;26.00;99.90;;;;;;5038890;28;20173;-78
2023/07/30 12:41:40;;;;;;;56.60;15.60;;;26.00;99.90;;;;;;5056908;28;20177;-77
2023/07/30 12:44:06;;;;;;;19.77;6.57;;;26.00;99.90;;;;;;5056488;28;20228;-77
2023/07/30 12:46:32;;;;;;;8.63;3.90;;;26.10;99.90;;;;;;5056774;28;20164;-77